Columbus, Ohio
Traffic Map
Current Weather Conditions
Columbus, Ohio
Few Clouds
Few Clouds
21°
Feels Like: 21°
Wind Chill: 21° Ceiling: Unl
Heat Index: 21° Visibility: 9mi
Dew Point: 19° Wind: 0mph
Humidity: 93% Direction: ° ()
Pressure: 29.97in Gusts: 0mph
Raw Report DataKCMH 310929Z 00000KT 9SM FEW005 21/19 A2997 RMK AO2 T02060194
Traffic Incident Summary
Active as of:
Severity:
Category:
InformationThere was an issue retrieving the traffic information for this location. Please try a different location or try again shortly.
Advertisements
Track Severe Weather on mobile